sensor_id;sensor_type;location;lat;lon;timestamp;pressure;altitude;pressure_sealevel;temperature;humidity
30819;BME280;17546;42.674;23.284;2023-05-25T00:01:57;94662.25;;;24.07;41.30
30819;BME280;17546;42.674;23.284;2023-05-25T00:04:23;94666.81;;;24.30;40.96
30819;BME280;17546;42.674;23.284;2023-05-25T00:07:06;94677.78;;;24.53;41.02
30819;BME280;17546;42.674;23.284;2023-05-25T00:09:32;94690.69;;;24.46;40.92
30819;BME280;17546;42.674;23.284;2023-05-25T00:11:57;94698.06;;;24.59;40.92
30819;BME280;17546;42.674;23.284;2023-05-25T00:14:24;94708.66;;;24.59;41.16
30819;BME280;17546;42.674;23.284;2023-05-25T00:16:50;94676.88;;;24.50;41.12
30819;BME280;17546;42.674;23.284;2023-05-25T00:19:16;94690.00;;;24.56;41.09
30819;BME280;17546;42.674;23.284;2023-05-25T00:21:43;94701.47;;;24.58;41.09
30819;BME280;17546;42.674;23.284;2023-05-25T00:24:10;94699.09;;;24.54;41.01
30819;BME280;17546;42.674;23.284;2023-05-25T00:26:35;94675.47;;;24.32;41.35
30819;BME280;17546;42.674;23.284;2023-05-25T00:29:02;94703.69;;;24.49;41.47
30819;BME280;17546;42.674;23.284;2023-05-25T00:31:28;94704.28;;;24.48;41.29
30819;BME280;17546;42.674;23.284;2023-05-25T00:33:56;94706.81;;;24.53;41.21
30819;BME280;17546;42.674;23.284;2023-05-25T00:36:23;94701.69;;;24.42;41.45
30819;BME280;17546;42.674;23.284;2023-05-25T00:38:48;94702.44;;;24.43;41.34
30819;BME280;17546;42.674;23.284;2023-05-25T00:41:16;94691.25;;;24.35;41.37
30819;BME280;17546;42.674;23.284;2023-05-25T00:43:44;94712.00;;;24.47;41.34
30819;BME280;17546;42.674;23.284;2023-05-25T00:46:10;94696.19;;;24.34;41.33
30819;BME280;17546;42.674;23.284;2023-05-25T00:48:38;94709.03;;;24.45;41.46
30819;BME280;17546;42.674;23.284;2023-05-25T00:51:04;94709.13;;;24.28;41.84
30819;BME280;17546;42.674;23.284;2023-05-25T00:53:29;94713.09;;;24.25;41.95
30819;BME280;17546;42.674;23.284;2023-05-25T00:56:13;94714.13;;;24.20;42.15
30819;BME280;17546;42.674;23.284;2023-05-25T00:58:41;94711.16;;;24.18;42.29
30819;BME280;17546;42.674;23.284;2023-05-25T01:01:08;94709.53;;;24.24;41.75
30819;BME280;17546;42.674;23.284;2023-05-25T01:03:39;94689.94;;;23.99;42.25
30819;BME280;17546;42.674;23.284;2023-05-25T01:06:14;94701.69;;;24.05;42.11
30819;BME280;17546;42.674;23.284;2023-05-25T01:08:43;94726.03;;;24.18;42.39
30819;BME280;17546;42.674;23.284;2023-05-25T01:11:10;94727.69;;;24.21;42.12
30819;BME280;17546;42.674;23.284;2023-05-25T01:13:37;94729.56;;;24.09;42.16
30819;BME280;17546;42.674;23.284;2023-05-25T01:16:06;94720.66;;;24.12;42.14
30819;BME280;17546;42.674;23.284;2023-05-25T01:18:33;94701.56;;;24.03;41.80
30819;BME280;17546;42.674;23.284;2023-05-25T01:21:03;94726.31;;;24.12;42.08
30819;BME280;17546;42.674;23.284;2023-05-25T01:23:42;94720.13;;;23.97;42.16
30819;BME280;17546;42.674;23.284;2023-05-25T01:26:14;94712.06;;;23.93;42.08
30819;BME280;17546;42.674;23.284;2023-05-25T01:28:50;94709.66;;;23.89;42.12
30819;BME280;17546;42.674;23.284;2023-05-25T01:31:17;94680.81;;;23.73;42.09
30819;BME280;17546;42.674;23.284;2023-05-25T01:33:45;94698.63;;;23.84;42.62
30819;BME280;17546;42.674;23.284;2023-05-25T01:36:11;94683.00;;;23.65;42.49
30819;BME280;17546;42.674;23.284;2023-05-25T01:38:36;94710.28;;;23.70;42.40
30819;BME280;17546;42.674;23.284;2023-05-25T01:41:03;94701.66;;;23.68;42.29
30819;BME280;17546;42.674;23.284;2023-05-25T01:43:29;94682.53;;;23.59;42.56
30819;BME280;17546;42.674;23.284;2023-05-25T01:46:11;94669.94;;;23.70;42.02
30819;BME280;17546;42.674;23.284;2023-05-25T01:51:13;94684.34;;;23.82;42.35
30819;BME280;17546;42.674;23.284;2023-05-25T01:53:51;94668.34;;;23.77;41.95
30819;BME280;17546;42.674;23.284;2023-05-25T01:56:18;94676.16;;;23.86;42.11
30819;BME280;17546;42.674;23.284;2023-05-25T01:58:46;94681.66;;;23.84;42.15
30819;BME280;17546;42.674;23.284;2023-05-25T02:01:14;94684.66;;;23.86;42.08
30819;BME280;17546;42.674;23.284;2023-05-25T02:03:41;94686.25;;;23.79;42.16
30819;BME280;17546;42.674;23.284;2023-05-25T02:06:07;94684.50;;;23.84;42.13
30819;BME280;17546;42.674;23.284;2023-05-25T02:08:33;94691.63;;;23.85;42.33
30819;BME280;17546;42.674;23.284;2023-05-25T02:10:58;94673.22;;;23.66;42.23
30819;BME280;17546;42.674;23.284;2023-05-25T02:13:24;94708.91;;;23.89;42.05
30819;BME280;17546;42.674;23.284;2023-05-25T02:15:49;94712.78;;;23.84;42.02
30819;BME280;17546;42.674;23.284;2023-05-25T02:18:15;94706.84;;;23.72;41.53
30819;BME280;17546;42.674;23.284;2023-05-25T02:20:42;94714.09;;;23.65;41.01
30819;BME280;17546;42.674;23.284;2023-05-25T02:23:09;94693.59;;;23.47;41.18
30819;BME280;17546;42.674;23.284;2023-05-25T02:25:34;94704.69;;;23.36;40.95
30819;BME280;17546;42.674;23.284;2023-05-25T02:28:02;94718.72;;;23.43;41.65
30819;BME280;17546;42.674;23.284;2023-05-25T02:30:28;94729.13;;;23.41;41.62
30819;BME280;17546;42.674;23.284;2023-05-25T02:32:53;94725.72;;;23.42;41.64
30819;BME280;17546;42.674;23.284;2023-05-25T02:35:19;94726.28;;;23.41;41.71
30819;BME280;17546;42.674;23.284;2023-05-25T02:37:44;94737.44;;;23.39;41.87
30819;BME280;17546;42.674;23.284;2023-05-25T02:40:10;94715.34;;;23.27;42.12
30819;BME280;17546;42.674;23.284;2023-05-25T02:42:36;94735.28;;;23.29;42.20
30819;BME280;17546;42.674;23.284;2023-05-25T02:45:04;94732.88;;;23.26;42.14
30819;BME280;17546;42.674;23.284;2023-05-25T02:47:30;94734.63;;;23.21;42.03
30819;BME280;17546;42.674;23.284;2023-05-25T02:49:56;94733.69;;;23.36;42.24
30819;BME280;17546;42.674;23.284;2023-05-25T02:52:21;94733.47;;;23.24;42.11
30819;BME280;17546;42.674;23.284;2023-05-25T02:54:47;94737.78;;;23.25;42.43
30819;BME280;17546;42.674;23.284;2023-05-25T02:57:12;94726.97;;;23.14;42.20
30819;BME280;17546;42.674;23.284;2023-05-25T02:59:37;94746.09;;;23.23;42.13
30819;BME280;17546;42.674;23.284;2023-05-25T03:02:04;94747.59;;;23.24;42.34
30819;BME280;17546;42.674;23.284;2023-05-25T03:04:30;94750.75;;;23.28;42.23
30819;BME280;17546;42.674;23.284;2023-05-25T03:06:58;94747.75;;;23.26;42.28
30819;BME280;17546;42.674;23.284;2023-05-25T03:09:24;94741.44;;;23.18;42.21
30819;BME280;17546;42.674;23.284;2023-05-25T03:11:49;94751.25;;;23.17;42.65
30819;BME280;17546;42.674;23.284;2023-05-25T03:14:14;94746.34;;;23.18;42.56
30819;BME280;17546;42.674;23.284;2023-05-25T03:16:40;94729.94;;;22.99;42.49
30819;BME280;17546;42.674;23.284;2023-05-25T03:19:05;94751.09;;;23.15;42.90
30819;BME280;17546;42.674;23.284;2023-05-25T03:21:31;94760.88;;;23.14;43.01
30819;BME280;17546;42.674;23.284;2023-05-25T03:23:57;94750.91;;;23.13;43.10
30819;BME280;17546;42.674;23.284;2023-05-25T03:26:23;94738.69;;;23.10;42.59
30819;BME280;17546;42.674;23.284;2023-05-25T03:28:50;94764.72;;;23.26;43.01
30819;BME280;17546;42.674;23.284;2023-05-25T03:31:16;94757.38;;;23.23;42.82
30819;BME280;17546;42.674;23.284;2023-05-25T03:33:42;94759.06;;;23.26;42.70
30819;BME280;17546;42.674;23.284;2023-05-25T03:36:08;94759.97;;;23.29;42.69
30819;BME280;17546;42.674;23.284;2023-05-25T03:38:35;94742.19;;;23.19;42.64
30819;BME280;17546;42.674;23.284;2023-05-25T03:41:00;94753.91;;;23.15;42.93
30819;BME280;17546;42.674;23.284;2023-05-25T03:43:26;94760.72;;;23.29;42.83
30819;BME280;17546;42.674;23.284;2023-05-25T03:45:51;94744.84;;;23.17;42.69
30819;BME280;17546;42.674;23.284;2023-05-25T03:48:17;94756.47;;;23.21;43.12
30819;BME280;17546;42.674;23.284;2023-05-25T03:50:45;94754.16;;;23.27;43.38
30819;BME280;17546;42.674;23.284;2023-05-25T03:53:10;94742.41;;;22.96;43.25
30819;BME280;17546;42.674;23.284;2023-05-25T03:55:36;94746.84;;;23.24;42.81
30819;BME280;17546;42.674;23.284;2023-05-25T03:58:01;94773.94;;;23.44;43.12
30819;BME280;17546;42.674;23.284;2023-05-25T04:00:27;94756.25;;;23.26;43.38
30819;BME280;17546;42.674;23.284;2023-05-25T04:02:52;94757.03;;;23.37;42.56
30819;BME280;17546;42.674;23.284;2023-05-25T04:05:17;94770.59;;;23.38;42.75
30819;BME280;17546;42.674;23.284;2023-05-25T04:07:46;94777.34;;;23.43;42.65
30819;BME280;17546;42.674;23.284;2023-05-25T04:10:11;94761.78;;;23.34;42.79
30819;BME280;17546;42.674;23.284;2023-05-25T04:12:37;94783.81;;;23.53;42.61
30819;BME280;17546;42.674;23.284;2023-05-25T04:15:02;94775.34;;;23.53;43.09
30819;BME280;17546;42.674;23.284;2023-05-25T04:17:29;94793.09;;;23.63;42.92
30819;BME280;17546;42.674;23.284;2023-05-25T04:19:55;94782.81;;;23.58;42.96
30819;BME280;17546;42.674;23.284;2023-05-25T04:22:20;94800.44;;;23.66;43.04
30819;BME280;17546;42.674;23.284;2023-05-25T04:24:45;94775.00;;;23.66;42.88
30819;BME280;17546;42.674;23.284;2023-05-25T04:27:11;94789.47;;;23.88;42.65
30819;BME280;17546;42.674;23.284;2023-05-25T04:29:39;94794.44;;;23.97;42.50
30819;BME280;17546;42.674;23.284;2023-05-25T04:32:05;94806.69;;;24.09;42.07
30819;BME280;17546;42.674;23.284;2023-05-25T04:34:33;94809.84;;;24.13;42.26
30819;BME280;17546;42.674;23.284;2023-05-25T04:36:59;94806.03;;;24.19;41.93
30819;BME280;17546;42.674;23.284;2023-05-25T04:39:29;94815.47;;;24.31;42.32
30819;BME280;17546;42.674;23.284;2023-05-25T04:41:55;94805.75;;;24.24;42.21
30819;BME280;17546;42.674;23.284;2023-05-25T04:44:21;94796.84;;;24.28;42.29
30819;BME280;17546;42.674;23.284;2023-05-25T04:46:48;94795.97;;;24.35;42.05
30819;BME280;17546;42.674;23.284;2023-05-25T04:49:13;94815.25;;;24.46;42.04
30819;BME280;17546;42.674;23.284;2023-05-25T04:51:39;94799.34;;;24.51;41.80
30819;BME280;17546;42.674;23.284;2023-05-25T04:54:04;94814.34;;;24.71;41.50
30819;BME280;17546;42.674;23.284;2023-05-25T04:56:30;94803.47;;;24.77;41.38
30819;BME280;17546;42.674;23.284;2023-05-25T04:58:55;94799.78;;;24.84;41.15
30819;BME280;17546;42.674;23.284;2023-05-25T05:01:21;94773.78;;;24.68;41.17
30819;BME280;17546;42.674;23.284;2023-05-25T05:03:46;94800.56;;;24.94;40.86
30819;BME280;17546;42.674;23.284;2023-05-25T05:06:11;94783.38;;;24.83;41.12
30819;BME280;17546;42.674;23.284;2023-05-25T05:08:37;94801.44;;;24.87;41.35
30819;BME280;17546;42.674;23.284;2023-05-25T05:11:02;94799.03;;;24.93;40.61
30819;BME280;17546;42.674;23.284;2023-05-25T05:13:27;94803.22;;;24.92;40.90
30819;BME280;17546;42.674;23.284;2023-05-25T05:15:53;94794.56;;;24.90;40.75
30819;BME280;17546;42.674;23.284;2023-05-25T05:18:19;94790.69;;;24.95;40.66
30819;BME280;17546;42.674;23.284;2023-05-25T05:20:44;94797.72;;;25.04;40.61
30819;BME280;17546;42.674;23.284;2023-05-25T05:23:10;94804.28;;;24.97;40.29
30819;BME280;17546;42.674;23.284;2023-05-25T05:25:35;94799.78;;;24.84;40.35
30819;BME280;17546;42.674;23.284;2023-05-25T05:28:02;94786.06;;;24.81;40.21
30819;BME280;17546;42.674;23.284;2023-05-25T05:30:27;94805.41;;;24.74;40.09
30819;BME280;17546;42.674;23.284;2023-05-25T05:32:54;94803.00;;;24.71;40.59
30819;BME280;17546;42.674;23.284;2023-05-25T05:35:21;94810.69;;;24.51;40.88
30819;BME280;17546;42.674;23.284;2023-05-25T05:37:47;94800.09;;;24.51;40.84
30819;BME280;17546;42.674;23.284;2023-05-25T05:40:13;94815.66;;;24.43;40.86
30819;BME280;17546;42.674;23.284;2023-05-25T05:42:38;94815.78;;;24.62;41.01
30819;BME280;17546;42.674;23.284;2023-05-25T05:45:04;94804.28;;;24.50;41.23
30819;BME280;17546;42.674;23.284;2023-05-25T05:47:30;94813.44;;;24.41;41.72
30819;BME280;17546;42.674;23.284;2023-05-25T05:49:55;94820.56;;;24.60;41.56
30819;BME280;17546;42.674;23.284;2023-05-25T05:52:21;94818.69;;;24.72;41.20
30819;BME280;17546;42.674;23.284;2023-05-25T05:54:47;94813.44;;;24.68;41.20
30819;BME280;17546;42.674;23.284;2023-05-25T05:57:12;94819.81;;;24.96;40.95
30819;BME280;17546;42.674;23.284;2023-05-25T05:59:37;94824.28;;;24.99;41.10
30819;BME280;17546;42.674;23.284;2023-05-25T06:02:03;94801.50;;;25.07;41.10
30819;BME280;17546;42.674;23.284;2023-05-25T06:04:29;94831.16;;;25.15;40.66
30819;BME280;17546;42.674;23.284;2023-05-25T06:06:54;94806.47;;;24.79;41.14
30819;BME280;17546;42.674;23.284;2023-05-25T06:09:20;94812.94;;;24.89;41.19
30819;BME280;17546;42.674;23.284;2023-05-25T06:11:46;94806.75;;;25.20;40.88
30819;BME280;17546;42.674;23.284;2023-05-25T06:14:11;94813.94;;;25.41;40.65
30819;BME280;17546;42.674;23.284;2023-05-25T06:16:37;94811.25;;;25.52;40.36
30819;BME280;17546;42.674;23.284;2023-05-25T06:19:02;94800.66;;;25.53;40.22
30819;BME280;17546;42.674;23.284;2023-05-25T06:21:28;94831.28;;;25.74;39.84
30819;BME280;17546;42.674;23.284;2023-05-25T06:23:54;94807.84;;;25.73;40.49
30819;BME280;17546;42.674;23.284;2023-05-25T06:26:22;94835.03;;;25.96;39.15
30819;BME280;17546;42.674;23.284;2023-05-25T06:28:47;94832.63;;;25.92;39.91
30819;BME280;17546;42.674;23.284;2023-05-25T06:31:14;94839.09;;;26.63;38.72
30819;BME280;17546;42.674;23.284;2023-05-25T06:33:39;94838.63;;;26.67;38.96
30819;BME280;17546;42.674;23.284;2023-05-25T06:36:05;94825.69;;;26.85;38.30
30819;BME280;17546;42.674;23.284;2023-05-25T06:38:31;94838.03;;;26.68;37.93
30819;BME280;17546;42.674;23.284;2023-05-25T06:40:56;94809.50;;;26.97;37.10
30819;BME280;17546;42.674;23.284;2023-05-25T06:43:26;94834.41;;;27.09;37.73
30819;BME280;17546;42.674;23.284;2023-05-25T06:45:52;94837.72;;;26.74;38.70
30819;BME280;17546;42.674;23.284;2023-05-25T06:48:17;94828.31;;;27.34;37.81
30819;BME280;17546;42.674;23.284;2023-05-25T06:50:42;94839.78;;;27.67;37.56
30819;BME280;17546;42.674;23.284;2023-05-25T06:53:08;94840.28;;;27.75;37.35
30819;BME280;17546;42.674;23.284;2023-05-25T06:55:35;94839.63;;;27.87;37.42
30819;BME280;17546;42.674;23.284;2023-05-25T06:58:00;94824.50;;;27.84;37.39
30819;BME280;17546;42.674;23.284;2023-05-25T07:00:25;94835.75;;;28.03;37.21
30819;BME280;17546;42.674;23.284;2023-05-25T07:02:51;94839.34;;;28.04;37.48
30819;BME280;17546;42.674;23.284;2023-05-25T07:05:16;94838.44;;;27.90;37.82
30819;BME280;17546;42.674;23.284;2023-05-25T07:07:42;94820.25;;;27.73;38.14
30819;BME280;17546;42.674;23.284;2023-05-25T07:10:07;94839.91;;;27.91;37.60
30819;BME280;17546;42.674;23.284;2023-05-25T07:12:33;94837.47;;;27.97;38.05
30819;BME280;17546;42.674;23.284;2023-05-25T07:14:58;94835.44;;;27.88;38.23
30819;BME280;17546;42.674;23.284;2023-05-25T07:17:24;94814.09;;;27.77;37.53
30819;BME280;17546;42.674;23.284;2023-05-25T07:19:50;94815.44;;;27.97;37.67
30819;BME280;17546;42.674;23.284;2023-05-25T07:22:16;94809.88;;;28.44;37.46
30819;BME280;17546;42.674;23.284;2023-05-25T07:24:46;94821.69;;;28.74;36.20
30819;BME280;17546;42.674;23.284;2023-05-25T07:27:12;94837.06;;;27.69;37.96
30819;BME280;17546;42.674;23.284;2023-05-25T07:29:38;94835.00;;;28.03;37.42
30819;BME280;17546;42.674;23.284;2023-05-25T07:32:05;94835.31;;;27.86;37.95
30819;BME280;17546;42.674;23.284;2023-05-25T07:34:32;94841.94;;;27.57;38.51
30819;BME280;17546;42.674;23.284;2023-05-25T07:36:57;94820.09;;;27.71;38.12
30819;BME280;17546;42.674;23.284;2023-05-25T07:39:23;94846.41;;;27.81;37.71
30819;BME280;17546;42.674;23.284;2023-05-25T07:41:48;94850.53;;;27.16;38.78
30819;BME280;17546;42.674;23.284;2023-05-25T07:44:13;94845.13;;;26.38;40.12
30819;BME280;17546;42.674;23.284;2023-05-25T07:46:39;94849.66;;;26.22;39.53
30819;BME280;17546;42.674;23.284;2023-05-25T07:49:04;94851.41;;;25.68;40.70
30819;BME280;17546;42.674;23.284;2023-05-25T07:51:36;94840.22;;;25.70;40.30
30819;BME280;17546;42.674;23.284;2023-05-25T07:54:01;94823.97;;;25.71;39.74
30819;BME280;17546;42.674;23.284;2023-05-25T07:56:27;94836.22;;;25.73;40.28
30819;BME280;17546;42.674;23.284;2023-05-25T07:58:52;94844.84;;;25.66;39.72
30819;BME280;17546;42.674;23.284;2023-05-25T08:01:18;94841.44;;;25.96;38.86
30819;BME280;17546;42.674;23.284;2023-05-25T08:03:43;94843.09;;;25.90;38.66
30819;BME280;17546;42.674;23.284;2023-05-25T08:06:09;94860.06;;;26.48;38.07
30819;BME280;17546;42.674;23.284;2023-05-25T08:08:34;94852.59;;;26.33;37.71
30819;BME280;17546;42.674;23.284;2023-05-25T08:11:01;94864.44;;;26.10;37.24
30819;BME280;17546;42.674;23.284;2023-05-25T08:13:26;94861.28;;;26.16;36.76
30819;BME280;17546;42.674;23.284;2023-05-25T08:15:52;94867.09;;;26.37;35.96
30819;BME280;17546;42.674;23.284;2023-05-25T08:18:17;94878.56;;;26.69;36.24
30819;BME280;17546;42.674;23.284;2023-05-25T08:20:43;94885.66;;;26.09;36.75
30819;BME280;17546;42.674;23.284;2023-05-25T08:23:08;94883.25;;;26.15;37.61
30819;BME280;17546;42.674;23.284;2023-05-25T08:25:34;94896.81;;;26.36;37.59
30819;BME280;17546;42.674;23.284;2023-05-25T08:28:00;94888.03;;;26.23;36.60
30819;BME280;17546;42.674;23.284;2023-05-25T08:30:25;94870.59;;;25.31;37.04
30819;BME280;17546;42.674;23.284;2023-05-25T08:32:50;94902.53;;;24.94;38.49
30819;BME280;17546;42.674;23.284;2023-05-25T08:35:16;94924.16;;;25.73;37.68
30819;BME280;17546;42.674;23.284;2023-05-25T08:37:42;94912.03;;;25.16;39.89
30819;BME280;17546;42.674;23.284;2023-05-25T08:40:13;94910.13;;;25.19;40.84
30819;BME280;17546;42.674;23.284;2023-05-25T08:42:41;94886.19;;;25.03;41.47
30819;BME280;17546;42.674;23.284;2023-05-25T08:45:07;94896.31;;;25.06;42.13
30819;BME280;17546;42.674;23.284;2023-05-25T08:47:42;94919.13;;;24.98;42.18
30819;BME280;17546;42.674;23.284;2023-05-25T08:50:09;94927.97;;;25.49;41.64
30819;BME280;17546;42.674;23.284;2023-05-25T08:52:38;94901.44;;;25.17;41.39
30819;BME280;17546;42.674;23.284;2023-05-25T08:55:05;94915.94;;;25.21;41.73
30819;BME280;17546;42.674;23.284;2023-05-25T09:00:50;94940.13;;;25.78;42.10
30819;BME280;17546;42.674;23.284;2023-05-25T09:03:19;94917.56;;;25.71;41.94
30819;BME280;17546;42.674;23.284;2023-05-25T09:05:46;94945.25;;;25.90;41.83
30819;BME280;17546;42.674;23.284;2023-05-25T09:08:12;94939.44;;;25.51;39.78
30819;BME280;17546;42.674;23.284;2023-05-25T09:10:38;94941.91;;;25.84;39.87
30819;BME280;17546;42.674;23.284;2023-05-25T09:13:04;94941.47;;;25.87;40.06
30819;BME280;17546;42.674;23.284;2023-05-25T09:15:31;94937.28;;;25.22;41.20
30819;BME280;17546;42.674;23.284;2023-05-25T09:17:57;94929.00;;;25.07;40.31
30819;BME280;17546;42.674;23.284;2023-05-25T09:20:23;94941.06;;;25.34;40.45
30819;BME280;17546;42.674;23.284;2023-05-25T09:22:49;94919.88;;;25.35;41.41
30819;BME280;17546;42.674;23.284;2023-05-25T09:25:18;94934.09;;;25.55;42.04
30819;BME280;17546;42.674;23.284;2023-05-25T09:27:47;94948.91;;;25.63;42.90
30819;BME280;17546;42.674;23.284;2023-05-25T09:30:13;94948.31;;;25.74;42.69
30819;BME280;17546;42.674;23.284;2023-05-25T09:32:38;94940.38;;;25.63;42.71
30819;BME280;17546;42.674;23.284;2023-05-25T09:35:11;94939.19;;;25.66;42.64
30819;BME280;17546;42.674;23.284;2023-05-25T09:37:38;94926.06;;;25.61;42.64
30819;BME280;17546;42.674;23.284;2023-05-25T09:40:16;94903.63;;;25.46;42.96
30819;BME280;17546;42.674;23.284;2023-05-25T09:42:41;94915.16;;;25.58;42.78
30819;BME280;17546;42.674;23.284;2023-05-25T09:45:07;94922.75;;;25.55;44.06
30819;BME280;17546;42.674;23.284;2023-05-25T09:47:34;94899.47;;;25.47;44.65
30819;BME280;17546;42.674;23.284;2023-05-25T09:50:01;94930.25;;;25.60;45.15
30819;BME280;17546;42.674;23.284;2023-05-25T09:52:27;94918.75;;;25.68;45.83
30819;BME280;17546;42.674;23.284;2023-05-25T09:54:52;94901.00;;;25.67;45.32
30819;BME280;17546;42.674;23.284;2023-05-25T09:57:19;94918.78;;;25.87;45.20
30819;BME280;17546;42.674;23.284;2023-05-25T09:59:45;94911.03;;;25.88;43.85
30819;BME280;17546;42.674;23.284;2023-05-25T10:02:12;94904.13;;;25.71;43.20
30819;BME280;17546;42.674;23.284;2023-05-25T10:04:38;94884.41;;;25.64;42.67
30819;BME280;17546;42.674;23.284;2023-05-25T10:07:04;94890.09;;;25.73;41.97
30819;BME280;17546;42.674;23.284;2023-05-25T10:09:34;94897.38;;;25.57;43.14
30819;BME280;17546;42.674;23.284;2023-05-25T10:12:03;94901.00;;;25.77;43.50
30819;BME280;17546;42.674;23.284;2023-05-25T10:14:29;94905.19;;;25.86;43.03
30819;BME280;17546;42.674;23.284;2023-05-25T10:16:57;94890.25;;;25.75;41.85
30819;BME280;17546;42.674;23.284;2023-05-25T10:19:36;94894.13;;;25.70;43.02
30819;BME280;17546;42.674;23.284;2023-05-25T10:22:12;94887.53;;;25.68;45.35
30819;BME280;17546;42.674;23.284;2023-05-25T10:27:18;94887.59;;;26.16;43.55
30819;BME280;17546;42.674;23.284;2023-05-25T10:29:46;94868.59;;;25.80;43.54
30819;BME280;17546;42.674;23.284;2023-05-25T10:32:12;94872.50;;;26.14;45.02
30819;BME280;17546;42.674;23.284;2023-05-25T10:34:39;94890.56;;;25.99;44.04
30819;BME280;17546;42.674;23.284;2023-05-25T10:37:06;94878.03;;;26.12;42.94
30819;BME280;17546;42.674;23.284;2023-05-25T10:39:32;94871.91;;;25.96;41.24
30819;BME280;17546;42.674;23.284;2023-05-25T10:41:59;94866.81;;;26.33;41.24
30819;BME280;17546;42.674;23.284;2023-05-25T10:44:28;94857.97;;;26.39;40.72
30819;BME280;17546;42.674;23.284;2023-05-25T10:46:53;94839.47;;;26.18;42.01
30819;BME280;17546;42.674;23.284;2023-05-25T10:49:29;94840.69;;;26.15;41.36
30819;BME280;17546;42.674;23.284;2023-05-25T10:51:57;94846.06;;;25.92;40.31
30819;BME280;17546;42.674;23.284;2023-05-25T10:54:30;94836.81;;;26.11;40.92
30819;BME280;17546;42.674;23.284;2023-05-25T10:57:30;94845.47;;;26.03;41.07
30819;BME280;17546;42.674;23.284;2023-05-25T11:00:05;94836.50;;;25.97;40.22
30819;BME280;17546;42.674;23.284;2023-05-25T11:02:58;94838.75;;;26.18;40.69
30819;BME280;17546;42.674;23.284;2023-05-25T11:07:56;94827.84;;;25.95;41.62
30819;BME280;17546;42.674;23.284;2023-05-25T11:13:35;94827.09;;;25.94;40.41
30819;BME280;17546;42.674;23.284;2023-05-25T11:18:56;94833.31;;;26.32;38.64
30819;BME280;17546;42.674;23.284;2023-05-25T11:24:01;94833.03;;;26.37;39.65
30819;BME280;17546;42.674;23.284;2023-05-25T11:26:34;94838.16;;;26.20;39.29
30819;BME280;17546;42.674;23.284;2023-05-25T11:29:11;94826.06;;;26.09;39.05
30819;BME280;17546;42.674;23.284;2023-05-25T11:31:40;94837.81;;;26.35;39.34
30819;BME280;17546;42.674;23.284;2023-05-25T11:34:06;94842.13;;;26.55;39.57
30819;BME280;17546;42.674;23.284;2023-05-25T11:36:35;94840.16;;;26.58;40.39
30819;BME280;17546;42.674;23.284;2023-05-25T11:39:02;94815.47;;;26.61;40.02
30819;BME280;17546;42.674;23.284;2023-05-25T11:41:28;94828.53;;;26.85;41.17
30819;BME280;17546;42.674;23.284;2023-05-25T11:43:54;94816.25;;;26.92;41.37
30819;BME280;17546;42.674;23.284;2023-05-25T11:46:21;94828.44;;;26.73;39.78
30819;BME280;17546;42.674;23.284;2023-05-25T11:48:51;94831.53;;;26.87;39.42
30819;BME280;17546;42.674;23.284;2023-05-25T11:51:21;94832.59;;;26.82;38.81
30819;BME280;17546;42.674;23.284;2023-05-25T11:53:47;94824.34;;;26.86;39.49
30819;BME280;17546;42.674;23.284;2023-05-25T11:56:13;94850.06;;;26.88;40.05
30819;BME280;17546;42.674;23.284;2023-05-25T11:58:49;94827.56;;;27.02;40.44
30819;BME280;17546;42.674;23.284;2023-05-25T12:01:24;94835.44;;;27.13;42.45
30819;BME280;17546;42.674;23.284;2023-05-25T12:03:51;94802.88;;;27.05;41.18
30819;BME280;17546;42.674;23.284;2023-05-25T12:06:31;94823.28;;;26.91;40.96
30819;BME280;17546;42.674;23.284;2023-05-25T12:09:02;94803.00;;;27.07;41.55
30819;BME280;17546;42.674;23.284;2023-05-25T12:11:35;94829.16;;;27.15;41.01
30819;BME280;17546;42.674;23.284;2023-05-25T12:14:03;94806.69;;;27.19;40.16
30819;BME280;17546;42.674;23.284;2023-05-25T12:16:30;94804.38;;;27.06;40.08
30819;BME280;17546;42.674;23.284;2023-05-25T12:18:56;94813.97;;;27.32;38.88
30819;BME280;17546;42.674;23.284;2023-05-25T12:21:22;94786.75;;;27.50;38.14
30819;BME280;17546;42.674;23.284;2023-05-25T12:23:49;94804.00;;;27.42;37.35
30819;BME280;17546;42.674;23.284;2023-05-25T12:26:16;94804.69;;;27.31;36.61
30819;BME280;17546;42.674;23.284;2023-05-25T12:29:01;94773.19;;;27.17;36.48
30819;BME280;17546;42.674;23.284;2023-05-25T12:37:01;94785.44;;;27.85;36.86
30819;BME280;17546;42.674;23.284;2023-05-25T12:41:58;94782.25;;;27.90;36.01
30819;BME280;17546;42.674;23.284;2023-05-25T12:44:28;94774.69;;;27.61;35.91
30819;BME280;17546;42.674;23.284;2023-05-25T12:47:09;94771.66;;;27.48;36.08
30819;BME280;17546;42.674;23.284;2023-05-25T12:49:38;94770.69;;;27.55;35.61
30819;BME280;17546;42.674;23.284;2023-05-25T12:52:04;94758.63;;;27.66;34.93
30819;BME280;17546;42.674;23.284;2023-05-25T12:57:15;94746.63;;;28.01;34.79
30819;BME280;17546;42.674;23.284;2023-05-25T12:59:45;94745.44;;;27.82;33.92
30819;BME280;17546;42.674;23.284;2023-05-25T13:02:12;94746.91;;;28.05;34.45
30819;BME280;17546;42.674;23.284;2023-05-25T13:04:39;94741.53;;;27.66;34.06
30819;BME280;17546;42.674;23.284;2023-05-25T13:07:06;94732.53;;;28.03;34.18
30819;BME280;17546;42.674;23.284;2023-05-25T13:09:33;94735.91;;;28.11;33.81
30819;BME280;17546;42.674;23.284;2023-05-25T13:11:59;94730.09;;;28.33;32.73
30819;BME280;17546;42.674;23.284;2023-05-25T13:14:26;94730.88;;;28.45;32.11
30819;BME280;17546;42.674;23.284;2023-05-25T13:16:52;94710.41;;;28.25;32.12
30819;BME280;17546;42.674;23.284;2023-05-25T13:19:20;94719.25;;;28.64;31.79
30819;BME280;17546;42.674;23.284;2023-05-25T13:21:50;94714.91;;;28.40;29.55